createdAt,value
2019-03-27T00:00:14.315Z,4.33
2019-03-27T00:02:46.810Z,4.58
2019-03-27T00:05:17.687Z,5.62
2019-03-27T00:07:48.717Z,5.62
2019-03-27T00:10:19.711Z,4.95
2019-03-27T00:12:50.698Z,4.70
2019-03-27T00:15:21.500Z,3.77
2019-03-27T00:17:52.381Z,5.47
2019-03-27T00:20:23.146Z,3.92
2019-03-27T00:22:54.066Z,3.83
2019-03-27T00:25:24.951Z,4.03
2019-03-27T00:27:55.889Z,3.85
2019-03-27T00:30:26.824Z,3.55
2019-03-27T00:32:57.809Z,5.45
2019-03-27T00:35:28.705Z,5.12
2019-03-27T00:37:59.572Z,3.90
2019-03-27T00:40:30.450Z,7.58
2019-03-27T00:43:01.359Z,3.98
2019-03-27T00:45:32.175Z,6.00
2019-03-27T00:48:03.119Z,4.55
2019-03-27T00:50:34.141Z,4.30
2019-03-27T00:53:05.047Z,4.17
2019-03-27T00:55:35.918Z,3.37
2019-03-27T00:58:06.808Z,4.58
2019-03-27T01:01:09.162Z,6.35
2019-03-27T01:03:40.164Z,4.78
2019-03-27T01:06:11.113Z,5.03
2019-03-27T01:08:42.152Z,4.67
2019-03-27T01:11:13.164Z,4.92
2019-03-27T01:13:44.166Z,4.22
2019-03-27T01:16:15.201Z,5.33
2019-03-27T01:18:46.284Z,4.47
2019-03-27T01:21:17.256Z,3.15
2019-03-27T01:23:48.196Z,5.17
2019-03-27T01:26:19.138Z,4.37
2019-03-27T01:28:51.013Z,3.85
2019-03-27T01:31:21.971Z,4.83
2019-03-27T01:33:52.944Z,4.85
2019-03-27T01:36:23.877Z,4.92
2019-03-27T01:38:54.665Z,4.30
2019-03-27T01:41:25.612Z,7.80
2019-03-27T01:43:56.582Z,4.35
2019-03-27T01:46:27.441Z,5.03
2019-03-27T01:48:58.295Z,3.90
2019-03-27T01:51:29.159Z,4.12
2019-03-27T01:54:00.187Z,4.25
2019-03-27T01:56:31.116Z,4.42
2019-03-27T01:59:02.001Z,5.65
2019-03-27T02:01:33.046Z,4.53
2019-03-27T02:04:04.033Z,4.15
2019-03-27T02:06:34.975Z,3.83
2019-03-27T02:09:06.559Z,4.00
2019-03-27T02:11:37.575Z,6.05
2019-03-27T02:14:08.392Z,3.62
2019-03-27T02:16:39.458Z,5.28
2019-03-27T02:19:10.410Z,4.35
2019-03-27T02:21:41.292Z,3.30
2019-03-27T02:24:12.209Z,4.15
2019-03-27T02:26:43.248Z,5.00
2019-03-27T02:29:14.223Z,3.90
2019-03-27T02:31:45.224Z,5.62
2019-03-27T02:34:16.258Z,4.50
2019-03-27T02:36:47.246Z,3.98
2019-03-27T02:39:18.154Z,4.30
2019-03-27T02:41:49.047Z,5.22
2019-03-27T02:44:19.882Z,3.47
2019-03-27T02:46:50.720Z,3.47
2019-03-27T02:49:21.706Z,3.72
2019-03-27T02:51:52.771Z,3.70
2019-03-27T02:54:23.750Z,3.95
2019-03-27T02:56:54.757Z,4.55
2019-03-27T02:59:25.667Z,3.67
2019-03-27T03:01:56.747Z,3.83
2019-03-27T03:04:27.903Z,4.33
2019-03-27T03:06:58.829Z,5.47
2019-03-27T03:09:29.719Z,4.15
2019-03-27T03:12:00.712Z,2.85
2019-03-27T03:14:31.673Z,2.17
2019-03-27T03:17:02.613Z,4.75
2019-03-27T03:19:34.756Z,3.83
2019-03-27T03:22:05.712Z,3.98
2019-03-27T03:24:36.901Z,4.35
2019-03-27T03:27:07.960Z,3.17
2019-03-27T03:29:38.904Z,4.67
2019-03-27T03:32:09.839Z,4.85
2019-03-27T03:34:40.719Z,4.55
2019-03-27T03:37:11.639Z,2.80
2019-03-27T03:39:42.649Z,5.28
2019-03-27T03:42:13.656Z,4.83
2019-03-27T03:44:44.556Z,3.20
2019-03-27T03:47:15.470Z,4.67
2019-03-27T03:49:46.437Z,4.78
2019-03-27T03:52:17.410Z,3.25
2019-03-27T03:54:48.274Z,3.80
2019-03-27T03:57:19.278Z,4.10
2019-03-27T03:59:50.135Z,5.72
2019-03-27T04:02:21.093Z,4.67
2019-03-27T04:04:51.964Z,4.45
2019-03-27T04:07:22.898Z,5.47
2019-03-27T04:09:53.738Z,3.77
2019-03-27T04:12:24.572Z,3.52
2019-03-27T04:14:55.519Z,5.60
2019-03-27T04:17:26.485Z,2.95
2019-03-27T04:19:57.383Z,5.17
2019-03-27T04:22:28.332Z,5.15
2019-03-27T04:24:59.293Z,2.90
2019-03-27T04:27:30.162Z,4.33
2019-03-27T04:30:01.158Z,4.37
2019-03-27T04:32:32.114Z,3.60
2019-03-27T04:35:02.952Z,4.03
2019-03-27T04:37:33.846Z,4.80
2019-03-27T04:40:04.726Z,4.72
2019-03-27T04:42:35.676Z,3.85
2019-03-27T04:45:06.734Z,3.65
2019-03-27T04:47:37.786Z,3.50
2019-03-27T04:50:08.729Z,4.00
2019-03-27T04:52:39.652Z,3.62
2019-03-27T04:55:10.648Z,4.45
2019-03-27T04:57:41.549Z,5.03
2019-03-27T05:00:12.505Z,4.50
2019-03-27T05:02:43.353Z,3.12
2019-03-27T05:05:14.158Z,4.95
2019-03-27T05:07:45.020Z,5.75
2019-03-27T05:10:15.872Z,5.15
2019-03-27T05:12:46.850Z,4.60
2019-03-27T05:15:17.765Z,3.80
2019-03-27T05:17:48.668Z,6.05
2019-03-27T05:20:19.584Z,4.15
2019-03-27T05:22:50.435Z,4.60
2019-03-27T05:25:22.214Z,4.45
2019-03-27T05:27:53.107Z,4.00
2019-03-27T05:30:28.725Z,5.55
2019-03-27T05:32:59.717Z,5.37
2019-03-27T05:35:30.479Z,5.00
2019-03-27T05:38:01.308Z,4.70
2019-03-27T05:40:32.053Z,3.80
2019-03-27T05:43:02.918Z,5.15
2019-03-27T05:45:33.823Z,3.50
2019-03-27T05:48:04.670Z,6.22
2019-03-27T05:50:35.523Z,3.70
2019-03-27T05:53:06.493Z,4.45
2019-03-27T05:55:37.302Z,3.58
2019-03-27T05:58:08.222Z,5.90
2019-03-27T06:00:39.133Z,4.45
2019-03-27T06:03:10.126Z,3.42
2019-03-27T06:05:40.956Z,4.90
2019-03-27T06:08:11.899Z,3.75
2019-03-27T06:10:42.941Z,7.08
2019-03-27T06:13:13.800Z,5.22
2019-03-27T06:15:45.284Z,4.05
2019-03-27T06:18:16.499Z,5.12
2019-03-27T06:20:47.447Z,3.87
2019-03-27T06:23:18.319Z,4.80
2019-03-27T06:25:49.185Z,3.87
2019-03-27T06:28:19.990Z,4.37
2019-03-27T06:30:51.830Z,4.87
2019-03-27T06:33:22.737Z,4.15
2019-03-27T06:38:09.317Z,3.37
2019-03-27T06:40:40.103Z,5.45
2019-03-27T06:43:11.245Z,3.35
2019-03-27T06:45:42.535Z,6.03
2019-03-27T06:48:25.751Z,4.70
2019-03-27T06:50:46.878Z,4.30
2019-03-27T06:53:17.965Z,5.55
2019-03-27T06:55:48.883Z,5.25
2019-03-27T06:58:19.778Z,4.28
2019-03-27T07:00:50.679Z,8.28
2019-03-27T07:03:21.568Z,7.53
2019-03-27T07:05:52.685Z,10.05
2019-03-27T07:08:23.573Z,9.43
2019-03-27T07:10:54.752Z,10.30
2019-03-27T07:13:25.685Z,10.82
2019-03-27T07:15:59.528Z,11.55
2019-03-27T07:18:39.963Z,8.08
2019-03-27T07:21:04.394Z,7.28
2019-03-27T07:23:35.779Z,11.18
2019-03-27T07:26:08.491Z,12.63
2019-03-27T07:28:40.638Z,10.58
2019-03-27T07:31:11.797Z,16.37
2019-03-27T07:33:45.077Z,17.20
2019-03-27T07:36:19.182Z,11.05
2019-03-27T07:38:50.184Z,12.43
2019-03-27T07:41:21.269Z,20.20
2019-03-27T07:43:52.826Z,13.78
2019-03-27T07:46:27.964Z,15.80
2019-03-27T07:48:59.040Z,8.95
2019-03-27T07:51:30.858Z,7.28
2019-03-27T07:54:01.895Z,11.50
2019-03-27T07:56:33.254Z,10.13
2019-03-27T07:59:04.406Z,9.00
2019-03-27T08:01:35.475Z,9.83
2019-03-27T08:04:07.089Z,17.90
2019-03-27T08:06:39.172Z,10.95
2019-03-27T08:09:10.943Z,10.15
2019-03-27T08:11:43.412Z,7.10
2019-03-27T08:14:15.187Z,7.22
2019-03-27T08:16:46.575Z,8.20
2019-03-27T08:19:21.122Z,10.18
2019-03-27T08:21:54.643Z,9.70
2019-03-27T08:24:26.975Z,9.10
2019-03-27T08:26:58.773Z,10.43
2019-03-27T08:31:34.912Z,7.35
2019-03-27T08:34:06.222Z,12.40
2019-03-27T08:36:37.570Z,10.97
2019-03-27T08:39:09.921Z,7.55
2019-03-27T08:41:41.444Z,9.68
2019-03-27T08:44:13.213Z,11.18
2019-03-27T08:46:44.228Z,9.30
2019-03-27T08:49:21.737Z,11.22
2019-03-27T08:51:48.339Z,9.80
2019-03-27T08:54:20.373Z,5.15
2019-03-27T08:56:51.695Z,6.08
2019-03-27T08:59:25.744Z,7.30
2019-03-27T09:01:58.273Z,5.33
2019-03-27T09:04:32.493Z,6.90
2019-03-27T09:07:03.809Z,10.47
2019-03-27T09:09:35.203Z,5.28
2019-03-27T09:12:06.441Z,8.43
2019-03-27T09:14:38.608Z,5.92
2019-03-27T09:17:12.043Z,4.70
2019-03-27T09:19:51.959Z,4.60
2019-03-27T09:22:27.773Z,6.15
2019-03-27T09:25:04.592Z,5.58
2019-03-27T09:27:36.044Z,6.17
2019-03-27T09:30:09.517Z,12.90
2019-03-27T09:32:48.260Z,10.70
2019-03-27T09:35:21.719Z,6.30
2019-03-27T09:37:54.588Z,9.90
2019-03-27T09:40:28.975Z,6.62
2019-03-27T09:43:00.698Z,8.23
2019-03-27T09:45:34.469Z,8.20
2019-03-27T09:48:04.012Z,8.38
2019-03-27T09:50:38.433Z,6.10
2019-03-27T09:53:11.723Z,9.93
2019-03-27T09:55:43.454Z,10.48
2019-03-27T10:00:18.179Z,6.65
2019-03-27T10:03:00.080Z,9.00
2019-03-27T10:18:51.021Z,10.90
2019-03-27T10:21:23.825Z,5.85
2019-03-27T10:23:57.282Z,8.73
2019-03-27T10:26:28.519Z,13.32
2019-03-27T10:29:00.048Z,7.60
2019-03-27T10:31:30.980Z,6.92
2019-03-27T10:34:07.057Z,2.47
2019-03-27T10:36:38.367Z,4.92
2019-03-27T10:39:09.461Z,6.33
2019-03-27T10:41:41.103Z,5.72
2019-03-27T10:44:12.460Z,7.25
2019-03-27T10:46:43.787Z,7.25
2019-03-27T10:49:14.760Z,4.37
2019-03-27T10:51:48.398Z,4.00
2019-03-27T10:54:19.910Z,3.52
2019-03-27T10:56:50.835Z,3.42
2019-03-27T10:59:25.986Z,5.12
2019-03-27T11:02:01.906Z,6.58
2019-03-27T11:04:35.649Z,26.02
2019-03-27T11:07:24.955Z,7.35
2019-03-27T11:09:55.557Z,8.43
2019-03-27T11:12:30.920Z,8.63
2019-03-27T11:15:02.778Z,9.25
2019-03-27T11:17:36.297Z,6.58
2019-03-27T11:20:08.958Z,7.70
2019-03-27T11:22:40.226Z,7.58
2019-03-27T11:25:11.394Z,5.67
2019-03-27T11:27:45.123Z,5.42
2019-03-27T11:30:20.307Z,4.12
2019-03-27T11:32:57.515Z,3.65
2019-03-27T11:35:28.477Z,5.75
2019-03-27T11:37:59.742Z,4.83
2019-03-27T11:40:30.800Z,4.28
2019-03-27T11:43:02.095Z,8.50
2019-03-27T11:45:33.610Z,5.20
2019-03-27T11:48:27.282Z,4.47
2019-03-27T11:51:02.954Z,2.55
2019-03-27T11:53:34.402Z,3.20
2019-03-27T11:56:10.410Z,2.47
2019-03-27T12:01:49.696Z,7.30
2019-03-27T12:07:08.711Z,12.43
2019-03-27T12:11:35.059Z,9.13
2019-03-27T12:14:07.443Z,6.03
2019-03-27T12:16:41.711Z,10.03
2019-03-27T12:19:15.612Z,5.50
2019-03-27T12:21:49.404Z,15.20
2019-03-27T12:24:21.315Z,9.75
2019-03-27T12:26:55.726Z,8.18
2019-03-27T12:29:30.933Z,18.70
2019-03-27T12:32:02.591Z,10.72
2019-03-27T12:34:37.004Z,13.20
2019-03-27T12:37:15.373Z,15.18
2019-03-27T12:39:53.905Z,14.35
2019-03-27T12:42:30.359Z,22.37
2019-03-27T12:45:04.052Z,19.48
2019-03-27T12:47:37.291Z,21.45
2019-03-27T12:50:10.916Z,25.37
2019-03-27T12:52:42.131Z,27.93
2019-03-27T12:55:14.593Z,23.73
2019-03-27T12:57:48.547Z,29.75
2019-03-27T13:00:19.981Z,22.13
2019-03-27T13:02:52.849Z,33.42
2019-03-27T13:05:27.664Z,20.85
2019-03-27T13:08:00.231Z,26.77
2019-03-27T13:10:35.997Z,28.10
2019-03-27T13:13:10.420Z,18.05
2019-03-27T13:15:42.495Z,19.60
2019-03-27T13:18:15.582Z,21.00
2019-03-27T13:20:49.364Z,20.02
2019-03-27T13:23:54.382Z,25.08
2019-03-27T13:26:53.210Z,20.60
2019-03-27T13:32:40.482Z,17.67
2019-03-27T13:35:17.119Z,15.20
2019-03-27T13:37:50.630Z,19.15
2019-03-27T13:40:29.186Z,19.05
2019-03-27T13:43:03.545Z,27.27
2019-03-27T13:48:48.436Z,19.37
2019-03-27T13:51:23.554Z,18.00
2019-03-27T13:53:59.754Z,19.17
2019-03-27T13:59:24.411Z,21.60
2019-03-27T14:02:04.732Z,21.65
2019-03-27T14:04:46.621Z,20.45
2019-03-27T14:07:41.308Z,14.43
2019-03-27T14:10:13.372Z,34.13
2019-03-27T14:12:46.095Z,20.27
2019-03-27T14:15:17.893Z,21.23
2019-03-27T14:17:52.696Z,18.98
2019-03-27T14:20:24.864Z,14.30
2019-03-27T14:23:04.026Z,18.90
2019-03-27T14:25:38.213Z,14.10
2019-03-27T14:28:09.426Z,20.10
2019-03-27T14:31:11.798Z,12.25
2019-03-27T14:33:42.939Z,17.62
2019-03-27T14:36:14.120Z,13.00
2019-03-27T14:38:45.080Z,20.15
2019-03-27T14:41:18.744Z,23.45
2019-03-27T14:43:49.745Z,12.05
2019-03-27T14:46:20.762Z,13.55
2019-03-27T14:48:54.304Z,15.50
2019-03-27T14:51:25.555Z,13.38
2019-03-27T14:53:57.969Z,9.28
2019-03-27T14:56:30.456Z,10.45
2019-03-27T14:59:01.487Z,11.57
2019-03-27T15:01:35.497Z,8.73
2019-03-27T15:04:04.976Z,9.60
2019-03-27T15:06:35.975Z,8.30
2019-03-27T15:09:09.929Z,8.90
2019-03-27T15:11:40.928Z,11.03
2019-03-27T15:14:11.819Z,7.25
2019-03-27T15:16:42.740Z,9.20
2019-03-27T15:19:13.608Z,7.53
2019-03-27T15:21:45.392Z,9.25
2019-03-27T15:24:16.234Z,7.85
2019-03-27T15:26:47.288Z,8.30
2019-03-27T15:29:19.092Z,6.65
2019-03-27T15:31:50.395Z,5.58
2019-03-27T15:34:21.388Z,4.37
2019-03-27T15:36:52.397Z,6.78
2019-03-27T15:39:23.702Z,11.55
2019-03-27T15:41:57.142Z,8.83
2019-03-27T15:44:28.049Z,9.13
2019-03-27T15:46:58.931Z,4.10
2019-03-27T15:49:29.785Z,9.30
2019-03-27T15:52:00.744Z,10.65
2019-03-27T15:54:31.657Z,6.30
2019-03-27T15:57:04.236Z,8.48
2019-03-27T15:59:36.454Z,4.70
2019-03-27T16:02:09.979Z,7.72
2019-03-27T16:04:40.864Z,5.58
2019-03-27T16:07:11.791Z,7.03
2019-03-27T16:09:42.693Z,8.25
2019-03-27T16:12:13.595Z,4.62
2019-03-27T16:14:44.518Z,5.97
2019-03-27T16:17:15.376Z,5.78
2019-03-27T16:19:46.458Z,5.03
2019-03-27T16:22:17.393Z,5.35
2019-03-27T16:24:48.370Z,4.80
2019-03-27T16:27:19.172Z,8.98
2019-03-27T16:29:50.004Z,4.72
2019-03-27T16:32:20.870Z,7.37
2019-03-27T16:34:51.727Z,7.05
2019-03-27T16:37:22.755Z,6.12
2019-03-27T16:39:53.699Z,5.97
2019-03-27T16:42:24.510Z,9.10
2019-03-27T16:44:55.370Z,6.40
2019-03-27T16:47:26.259Z,9.23
2019-03-27T16:49:57.152Z,6.92
2019-03-27T16:52:28.022Z,6.35
2019-03-27T16:54:58.966Z,9.80
2019-03-27T16:57:29.962Z,7.75
2019-03-27T17:00:00.991Z,6.75
2019-03-27T17:02:33.542Z,9.75
2019-03-27T17:05:05.120Z,7.08
2019-03-27T17:07:36.209Z,9.95
2019-03-27T17:10:08.124Z,8.78
2019-03-27T17:12:38.930Z,10.80
2019-03-27T17:15:09.879Z,13.45
2019-03-27T17:17:40.820Z,14.40
2019-03-27T17:20:11.626Z,10.48
2019-03-27T17:22:42.623Z,10.08
2019-03-27T17:25:14.380Z,6.20
2019-03-27T17:27:45.327Z,8.63
2019-03-27T17:30:16.118Z,10.05
2019-03-27T17:32:46.990Z,10.20
2019-03-27T17:35:17.833Z,4.00
2019-03-27T17:37:48.747Z,7.62
2019-03-27T17:40:19.629Z,5.55
2019-03-27T17:42:50.463Z,7.03
2019-03-27T17:45:21.279Z,6.78
2019-03-27T17:47:52.187Z,9.08
2019-03-27T17:50:23.057Z,4.67
2019-03-27T17:52:54.355Z,9.05
2019-03-27T17:55:25.214Z,5.67
2019-03-27T17:57:56.195Z,9.80
2019-03-27T18:00:42.185Z,10.95
2019-03-27T18:03:13.074Z,7.00
2019-03-27T18:05:44.013Z,4.80
2019-03-27T18:08:14.971Z,4.75
2019-03-27T18:10:46.025Z,4.33
2019-03-27T18:13:16.950Z,7.30
2019-03-27T18:15:47.892Z,9.08
2019-03-27T18:18:18.740Z,5.50
2019-03-27T18:20:49.630Z,9.58
2019-03-27T18:23:20.549Z,4.45
2019-03-27T18:25:51.404Z,5.37
2019-03-27T18:28:22.428Z,4.22
2019-03-27T18:30:53.459Z,4.47
2019-03-27T18:33:24.306Z,5.58
2019-03-27T18:35:55.216Z,5.67
2019-03-27T18:38:26.015Z,6.45
2019-03-27T18:40:56.939Z,7.05
2019-03-27T18:43:27.768Z,5.00
2019-03-27T18:45:58.746Z,4.67
2019-03-27T18:48:29.812Z,5.53
2019-03-27T18:51:00.778Z,5.47
2019-03-27T18:53:31.802Z,5.83
2019-03-27T18:56:02.672Z,6.30
2019-03-27T18:58:33.579Z,7.80
2019-03-27T19:01:04.482Z,4.12
2019-03-27T19:03:35.476Z,5.92
2019-03-27T19:06:06.366Z,6.80
2019-03-27T19:08:37.351Z,6.33
2019-03-27T19:11:09.351Z,4.65
2019-03-27T19:13:40.299Z,7.65
2019-03-27T19:16:11.264Z,7.72
2019-03-27T19:18:42.202Z,5.85
2019-03-27T19:21:13.102Z,5.75
2019-03-27T19:23:44.142Z,7.60
2019-03-27T19:26:15.145Z,6.70
2019-03-27T19:28:46.242Z,7.35
2019-03-27T19:31:17.332Z,6.87
2019-03-27T19:33:48.311Z,5.65
2019-03-27T19:36:19.172Z,5.75
2019-03-27T19:38:50.072Z,5.25
2019-03-27T19:41:20.962Z,6.75
2019-03-27T19:43:51.826Z,5.05
2019-03-27T19:46:22.722Z,5.62
2019-03-27T19:48:53.761Z,6.80
2019-03-27T19:51:24.696Z,5.37
2019-03-27T19:53:56.615Z,6.30
2019-03-27T19:56:27.519Z,5.80
2019-03-27T19:58:58.416Z,7.08
2019-03-27T20:01:29.471Z,6.60
2019-03-27T20:04:00.463Z,8.30
2019-03-27T20:06:31.354Z,5.47
2019-03-27T20:09:02.399Z,7.22
2019-03-27T20:11:34.960Z,6.70
2019-03-27T20:14:05.831Z,7.17
2019-03-27T20:16:36.803Z,7.12
2019-03-27T20:19:07.870Z,7.00
2019-03-27T20:21:38.802Z,6.00
2019-03-27T20:24:09.858Z,7.33
2019-03-27T20:26:40.781Z,6.15
2019-03-27T20:29:12.821Z,6.40
2019-03-27T20:31:43.938Z,6.83
2019-03-27T20:34:14.833Z,7.33
2019-03-27T20:36:45.822Z,4.28
2019-03-27T20:39:17.847Z,7.22
2019-03-27T20:41:49.171Z,8.23
2019-03-27T20:44:20.228Z,7.25
2019-03-27T20:46:51.187Z,6.47
2019-03-27T20:49:22.139Z,6.58
2019-03-27T20:51:54.922Z,4.97
2019-03-27T20:54:25.746Z,7.78
2019-03-27T20:56:56.708Z,6.33
2019-03-27T20:59:28.628Z,6.12
2019-03-27T21:01:59.564Z,5.33
2019-03-27T21:04:30.488Z,7.10
2019-03-27T21:07:01.478Z,4.85
2019-03-27T21:09:34.903Z,6.72
2019-03-27T21:12:05.062Z,5.70
2019-03-27T21:14:36.314Z,6.50
2019-03-27T21:17:07.337Z,6.47
2019-03-27T21:19:38.223Z,5.75
2019-03-27T21:22:09.083Z,5.30
2019-03-27T21:24:40.030Z,6.15
2019-03-27T21:27:10.906Z,5.80
2019-03-27T21:29:41.671Z,5.40
2019-03-27T21:32:12.739Z,5.67
2019-03-27T21:34:43.618Z,5.72
2019-03-27T21:37:14.824Z,10.90
2019-03-27T21:39:45.863Z,7.08
2019-03-27T21:42:16.757Z,5.03
2019-03-27T21:44:47.922Z,8.13
2019-03-27T21:47:18.775Z,6.15
2019-03-27T21:49:49.741Z,7.40
2019-03-27T21:52:20.725Z,6.75
2019-03-27T21:54:51.835Z,6.25
2019-03-27T21:57:22.702Z,6.90
2019-03-27T21:59:53.677Z,5.25
2019-03-27T22:02:24.592Z,4.45
2019-03-27T22:04:55.705Z,5.75
2019-03-27T22:07:26.755Z,6.00
2019-03-27T22:09:57.716Z,7.62
2019-03-27T22:12:28.684Z,6.25
2019-03-27T22:14:59.667Z,6.30
2019-03-27T22:17:30.583Z,6.33
2019-03-27T22:20:01.463Z,7.22
2019-03-27T22:22:32.402Z,5.03
2019-03-27T22:25:03.345Z,6.15
2019-03-27T22:27:34.312Z,5.80
2019-03-27T22:30:05.735Z,7.50
2019-03-27T22:32:36.657Z,5.72
2019-03-27T22:35:07.682Z,6.20
2019-03-27T22:37:38.564Z,6.72
2019-03-27T22:40:09.605Z,5.40
2019-03-27T22:42:40.944Z,5.15
2019-03-27T22:45:11.691Z,11.57
2019-03-27T22:47:42.731Z,7.10
2019-03-27T22:50:13.581Z,10.20
2019-03-27T22:52:44.450Z,7.83
2019-03-27T22:55:15.233Z,7.65
2019-03-27T22:57:46.243Z,8.53
2019-03-27T23:00:17.975Z,7.80
2019-03-27T23:02:50.971Z,8.98
2019-03-27T23:05:21.982Z,9.00
2019-03-27T23:07:52.951Z,9.13
2019-03-27T23:10:23.818Z,7.15
2019-03-27T23:12:54.852Z,8.18
2019-03-27T23:15:25.692Z,9.70
2019-03-27T23:17:56.597Z,9.70
2019-03-27T23:20:27.590Z,8.98
2019-03-27T23:22:58.582Z,6.65
2019-03-27T23:25:29.449Z,9.48
2019-03-27T23:28:00.398Z,12.30
2019-03-27T23:30:31.213Z,8.25
2019-03-27T23:33:02.208Z,8.10
2019-03-27T23:35:33.123Z,10.78
2019-03-27T23:38:04.068Z,7.33
2019-03-27T23:40:35.084Z,8.55
2019-03-27T23:43:05.980Z,8.10
2019-03-27T23:45:36.832Z,8.50
2019-03-27T23:48:07.778Z,8.30
2019-03-27T23:50:38.676Z,7.00
2019-03-27T23:53:09.598Z,8.25
2019-03-27T23:55:40.469Z,7.70
2019-03-27T23:58:11.435Z,6.67
